Time;durP1;ratioP1;P1;durP2;ratioP2;P2;SDS_P1;SDS_P2;PMS_P1;PMS_P2;Temp;Humidity;BMP_temperature;BMP_pressure;BME280_temperature;BME280_humidity;BME280_pressure;Samples;Min_cycle;Max_cycle;Signal;HPM_P1;HPM_P2
2021/08/08 00:00:44;;;;;;;5.70;1.58;;;15.50;99.90;;;;;;5013989;28;20050;-75
2021/08/08 00:03:10;;;;;;;2.13;1.20;;;15.50;99.90;;;;;;5013732;28;20054;-75
2021/08/08 00:05:36;;;;;;;3.88;1.77;;;15.50;99.90;;;;;;5013531;28;20383;-75
2021/08/08 00:08:03;;;;;;;5.45;1.98;;;15.50;99.90;;;;;;5015090;28;20050;-75
2021/08/08 00:10:30;;;;;;;5.20;1.63;;;15.50;99.90;;;;;;5017618;28;20339;-75
2021/08/08 00:12:56;;;;;;;3.65;1.80;;;15.60;99.90;;;;;;5017502;28;20053;-76
2021/08/08 00:15:22;;;;;;;8.90;2.60;;;15.50;99.90;;;;;;5017724;28;20053;-76
2021/08/08 00:17:50;;;;;;;5.68;2.13;;;15.50;99.90;;;;;;5017055;28;20041;-76
2021/08/08 00:20:16;;;;;;;3.05;1.88;;;15.50;99.90;;;;;;5017242;28;20430;-76
2021/08/08 00:22:43;;;;;;;5.78;2.30;;;15.50;99.90;;;;;;5017352;28;20054;-76
2021/08/08 00:25:10;;;;;;;7.10;1.92;;;15.40;99.90;;;;;;5017562;28;20041;-76
2021/08/08 00:27:37;;;;;;;5.32;2.10;;;15.40;99.90;;;;;;5017045;28;20046;-76
2021/08/08 00:30:05;;;;;;;7.20;2.05;;;15.40;99.90;;;;;;5017082;28;20447;-76
2021/08/08 00:32:32;;;;;;;4.47;2.30;;;15.40;99.90;;;;;;5016997;28;20431;-76
2021/08/08 00:34:58;;;;;;;3.95;1.98;;;15.40;99.90;;;;;;5017411;28;20068;-76
2021/08/08 00:37:25;;;;;;;7.93;2.05;;;15.40;99.90;;;;;;5017257;28;20057;-76
2021/08/08 00:39:51;;;;;;;4.47;1.60;;;15.40;99.90;;;;;;5017198;28;20046;-76
2021/08/08 00:42:17;;;;;;;5.10;2.45;;;15.40;99.90;;;;;;5016506;28;20057;-76
2021/08/08 00:44:44;;;;;;;6.82;2.58;;;15.30;99.90;;;;;;5016860;28;20053;-76
2021/08/08 00:47:10;;;;;;;5.85;2.95;;;15.30;99.90;;;;;;5017064;28;20537;-76
2021/08/08 00:49:36;;;;;;;5.72;2.40;;;15.30;99.90;;;;;;5016416;28;20062;-76
2021/08/08 00:52:03;;;;;;;5.90;2.25;;;15.40;99.90;;;;;;5016766;28;20060;-76
2021/08/08 00:54:29;;;;;;;2.75;2.33;;;15.30;99.90;;;;;;5016130;28;20061;-75
2021/08/08 00:56:55;;;;;;;9.70;2.30;;;15.20;99.90;;;;;;5016677;28;20458;-76
2021/08/08 00:59:21;;;;;;;7.60;2.30;;;15.20;99.90;;;;;;5016684;28;20042;-76
2021/08/08 01:01:49;;;;;;;4.13;2.10;;;15.20;99.90;;;;;;5016603;28;20057;-76
2021/08/08 01:04:22;;;;;;;4.40;2.10;;;15.30;99.90;;;;;;5015995;28;20057;-76
2021/08/08 01:07:08;;;;;;;3.75;1.98;;;15.30;99.90;;;;;;5016528;28;20053;-76
2021/08/08 01:09:39;;;;;;;4.47;2.65;;;15.30;99.90;;;;;;5016460;28;20062;-76
2021/08/08 01:12:06;;;;;;;4.93;2.55;;;15.30;99.90;;;;;;5016099;28;20062;-76
2021/08/08 01:14:33;;;;;;;5.85;2.50;;;15.30;99.90;;;;;;5016420;28;20321;-76
2021/08/08 01:17:04;;;;;;;5.07;2.10;;;15.40;99.90;;;;;;5016507;28;20050;-76
2021/08/08 01:19:39;;;;;;;3.17;1.65;;;15.40;99.90;;;;;;5016009;28;20056;-76
2021/08/08 01:22:07;;;;;;;4.50;2.28;;;15.50;99.90;;;;;;5016194;28;20050;-76
2021/08/08 01:24:34;;;;;;;3.95;2.15;;;15.60;99.90;;;;;;5015760;28;20053;-76
2021/08/08 01:27:02;;;;;;;4.13;1.90;;;15.50;99.90;;;;;;5016302;28;20057;-76
2021/08/08 01:29:30;;;;;;;5.13;2.70;;;15.50;99.90;;;;;;5016204;28;20045;-76
2021/08/08 01:31:57;;;;;;;5.45;2.40;;;15.50;99.90;;;;;;5016161;28;20332;-76
2021/08/08 01:34:23;;;;;;;13.65;3.05;;;15.50;99.90;;;;;;5015666;28;20072;-76
2021/08/08 01:36:49;;;;;;;5.40;2.70;;;15.50;99.90;;;;;;5015916;28;20046;-75
2021/08/08 01:39:19;;;;;;;4.70;2.50;;;15.50;99.90;;;;;;5015781;28;20081;-75
2021/08/08 01:41:52;;;;;;;5.63;3.70;;;15.60;99.90;;;;;;5016259;28;20049;-77
2021/08/08 01:44:20;;;;;;;6.47;2.45;;;15.50;99.90;;;;;;5014624;28;20046;-75
2021/08/08 01:46:53;;;;;;;5.20;3.00;;;15.50;99.90;;;;;;5016142;28;20344;-75
2021/08/08 01:49:23;;;;;;;8.88;2.70;;;15.60;99.90;;;;;;5015465;28;20741;-76
2021/08/08 01:51:52;;;;;;;6.13;2.88;;;15.60;99.90;;;;;;5015843;28;20053;-76
2021/08/08 01:54:18;;;;;;;6.05;2.75;;;15.60;99.90;;;;;;5019444;28;20060;-75
2021/08/08 01:56:46;;;;;;;4.85;2.70;;;15.50;99.90;;;;;;5035490;28;20056;-75
2021/08/08 01:59:13;;;;;;;7.40;2.53;;;15.50;99.90;;;;;;5035231;28;20052;-75
2021/08/08 02:01:40;;;;;;;5.10;2.10;;;15.50;99.90;;;;;;5004428;28;20050;-75
2021/08/08 02:04:22;;;;;;;6.65;2.38;;;15.50;99.90;;;;;;5015270;28;20052;-75
2021/08/08 02:06:49;;;;;;;7.40;2.60;;;15.60;99.90;;;;;;5015119;28;20057;-75
2021/08/08 02:09:15;;;;;;;6.30;2.90;;;15.60;99.90;;;;;;5015024;28;20054;-76
2021/08/08 02:11:41;;;;;;;4.20;2.47;;;15.60;99.90;;;;;;5015108;28;20064;-76
2021/08/08 02:14:07;;;;;;;8.27;3.15;;;15.60;99.90;;;;;;5015307;28;20057;-76
2021/08/08 02:16:34;;;;;;;7.32;2.80;;;15.70;99.90;;;;;;5015424;28;20046;-75
2021/08/08 02:19:03;;;;;;;5.93;2.35;;;15.70;99.90;;;;;;5015341;28;20305;-76
2021/08/08 02:21:29;;;;;;;4.53;2.40;;;15.70;99.90;;;;;;5014945;28;20068;-76
2021/08/08 02:23:56;;;;;;;3.65;1.75;;;15.60;99.90;;;;;;5015078;28;20053;-75
2021/08/08 02:26:23;;;;;;;4.82;2.20;;;15.90;99.90;;;;;;5015247;28;20060;-75
2021/08/08 02:28:49;;;;;;;4.60;2.25;;;15.90;99.90;;;;;;5015191;28;20068;-74
2021/08/08 02:31:18;;;;;;;3.75;2.17;;;15.80;99.90;;;;;;5014214;28;20416;-75
2021/08/08 02:33:46;;;;;;;5.32;2.83;;;15.90;99.90;;;;;;5009348;28;20058;-75
2021/08/08 02:36:12;;;;;;;6.25;2.33;;;15.80;99.90;;;;;;4995200;28;20050;-75
2021/08/08 02:38:38;;;;;;;6.25;2.25;;;15.90;99.90;;;;;;4995092;28;20424;-75
2021/08/08 02:41:05;;;;;;;7.82;2.75;;;15.90;99.90;;;;;;4995379;28;20219;-75
2021/08/08 02:43:31;;;;;;;5.50;2.90;;;15.90;99.90;;;;;;4994986;28;20042;-75
2021/08/08 02:45:57;;;;;;;6.40;2.45;;;15.90;99.90;;;;;;4995067;28;20443;-75
2021/08/08 02:48:24;;;;;;;10.52;3.17;;;16.00;99.90;;;;;;4995521;28;20413;-75
2021/08/08 02:50:50;;;;;;;5.40;3.47;;;15.90;99.90;;;;;;4995103;28;20046;-75
2021/08/08 02:53:16;;;;;;;4.10;2.17;;;15.90;99.90;;;;;;4995014;28;20038;-75
2021/08/08 02:55:43;;;;;;;6.57;2.70;;;15.90;99.90;;;;;;4994756;28;20042;-75
2021/08/08 02:58:09;;;;;;;5.63;2.60;;;15.90;99.90;;;;;;4995053;28;20451;-75
2021/08/08 03:00:35;;;;;;;7.70;2.65;;;15.80;99.90;;;;;;4998734;28;20045;-75
2021/08/08 03:03:01;;;;;;;4.28;2.58;;;15.70;99.90;;;;;;5015118;28;20427;-75
2021/08/08 03:05:28;;;;;;;8.20;3.42;;;15.70;99.90;;;;;;5014852;28;20033;-75
2021/08/08 03:07:54;;;;;;;6.70;2.70;;;15.80;99.90;;;;;;5015323;28;20042;-75
2021/08/08 03:10:20;;;;;;;6.38;3.28;;;15.70;99.90;;;;;;5014614;28;20048;-75
2021/08/08 03:12:46;;;;;;;9.30;3.53;;;15.70;99.90;;;;;;5014712;28;20049;-75
2021/08/08 03:15:13;;;;;;;9.10;3.10;;;15.80;99.90;;;;;;5014392;28;20072;-75
2021/08/08 03:17:39;;;;;;;6.97;3.70;;;15.90;99.90;;;;;;5014492;28;20332;-75
2021/08/08 03:20:06;;;;;;;6.38;4.40;;;15.80;99.90;;;;;;5014435;28;20408;-75
2021/08/08 03:22:32;;;;;;;7.90;3.95;;;15.90;99.90;;;;;;5014434;28;20080;-75
2021/08/08 03:24:58;;;;;;;6.18;3.95;;;15.90;99.90;;;;;;5014441;28;20046;-75
2021/08/08 03:27:25;;;;;;;8.25;3.85;;;15.90;99.90;;;;;;5014497;28;20053;-75
2021/08/08 03:29:52;;;;;;;7.50;3.75;;;15.90;99.90;;;;;;5014802;28;20442;-75
2021/08/08 03:32:18;;;;;;;6.22;3.55;;;15.80;99.90;;;;;;5014385;28;20056;-75
2021/08/08 03:34:44;;;;;;;8.27;4.28;;;15.80;99.90;;;;;;5014454;28;20042;-75
2021/08/08 03:37:10;;;;;;;10.98;4.28;;;15.80;99.90;;;;;;5014406;28;20056;-75
2021/08/08 03:39:37;;;;;;;7.22;4.38;;;15.90;99.90;;;;;;5014202;28;20065;-75
2021/08/08 03:42:03;;;;;;;7.43;3.55;;;15.80;99.90;;;;;;5015977;28;20049;-75
2021/08/08 03:44:29;;;;;;;7.65;4.22;;;15.80;99.90;;;;;;5001122;28;20061;-75
2021/08/08 03:46:56;;;;;;;6.57;4.20;;;15.80;99.90;;;;;;5017850;28;20056;-75
2021/08/08 03:49:22;;;;;;;5.85;4.03;;;15.90;99.90;;;;;;5017605;28;20076;-75
2021/08/08 03:51:48;;;;;;;6.85;4.18;;;15.80;99.90;;;;;;5017414;28;20064;-75
2021/08/08 03:54:14;;;;;;;8.32;5.00;;;15.80;99.90;;;;;;5018216;28;20042;-75
2021/08/08 03:56:42;;;;;;;6.63;3.15;;;15.80;99.90;;;;;;5017409;28;20062;-75
2021/08/08 03:59:09;;;;;;;6.22;4.22;;;15.80;99.90;;;;;;5017962;28;20042;-75
2021/08/08 04:01:35;;;;;;;6.50;3.67;;;15.70;99.90;;;;;;5017323;28;20168;-77
2021/08/08 04:04:02;;;;;;;7.82;5.15;;;15.70;99.90;;;;;;5017490;28;20056;-75
2021/08/08 04:06:28;;;;;;;8.43;4.57;;;15.60;99.90;;;;;;5017616;28;20041;-75
2021/08/08 04:08:55;;;;;;;9.05;5.72;;;15.60;99.90;;;;;;5017506;28;20046;-76
2021/08/08 04:11:21;;;;;;;8.52;5.35;;;15.60;99.90;;;;;;5017745;28;20050;-76
2021/08/08 04:13:48;;;;;;;8.38;5.97;;;15.60;99.90;;;;;;5018036;28;20049;-76
2021/08/08 04:16:14;;;;;;;7.55;6.05;;;15.50;99.90;;;;;;5006255;28;20046;-76
2021/08/08 04:18:42;;;;;;;6.55;4.63;;;15.60;99.90;;;;;;5002532;28;20046;-76
2021/08/08 04:21:08;;;;;;;10.80;7.28;;;15.50;99.90;;;;;;4998465;28;20046;-76
2021/08/08 04:23:34;;;;;;;8.88;6.05;;;15.50;99.90;;;;;;4997220;28;20047;-76
2021/08/08 04:26:00;;;;;;;9.85;8.27;;;15.50;99.90;;;;;;4980479;28;20051;-76
2021/08/08 04:28:27;;;;;;;5.85;5.13;;;15.60;99.90;;;;;;4997253;28;20389;-75
2021/08/08 04:30:53;;;;;;;10.13;6.20;;;15.50;99.90;;;;;;4997358;28;20076;-76
2021/08/08 04:33:19;;;;;;;11.30;6.72;;;15.50;99.90;;;;;;4997266;28;20061;-76
2021/08/08 04:35:46;;;;;;;12.80;7.18;;;15.60;99.90;;;;;;4997543;28;20341;-76
2021/08/08 04:38:12;;;;;;;9.45;7.35;;;15.60;99.90;;;;;;4997627;28;20061;-76
2021/08/08 04:40:38;;;;;;;10.10;6.60;;;15.70;99.90;;;;;;4997486;28;20050;-75
2021/08/08 04:43:05;;;;;;;9.05;6.60;;;15.60;99.90;;;;;;4997376;28;20046;-75
2021/08/08 04:45:32;;;;;;;9.95;6.72;;;15.60;99.90;;;;;;4997415;28;20075;-75
2021/08/08 04:47:58;;;;;;;12.85;8.65;;;15.60;99.90;;;;;;4996637;28;20548;-75
2021/08/08 04:50:25;;;;;;;12.18;6.95;;;15.70;99.90;;;;;;4997322;28;20049;-75
2021/08/08 04:52:51;;;;;;;11.15;7.68;;;15.80;99.90;;;;;;4996947;28;20045;-75
2021/08/08 04:55:17;;;;;;;9.85;7.47;;;15.80;99.90;;;;;;4996809;28;20389;-76
2021/08/08 04:57:44;;;;;;;15.25;8.48;;;15.80;99.90;;;;;;4997238;28;20050;-75
2021/08/08 05:00:11;;;;;;;8.98;6.35;;;15.90;99.90;;;;;;4996923;28;20054;-75
2021/08/08 05:02:46;;;;;;;8.98;7.28;;;15.90;99.90;;;;;;4996699;28;20376;-75
2021/08/08 05:05:13;;;;;;;12.73;8.30;;;16.00;99.90;;;;;;4996699;28;20058;-75
2021/08/08 05:07:40;;;;;;;14.60;8.68;;;16.00;99.90;;;;;;4997053;28;20057;-75
2021/08/08 05:10:09;;;;;;;14.25;8.20;;;16.10;99.90;;;;;;4997056;28;20053;-75
2021/08/08 05:12:36;;;;;;;15.30;8.20;;;16.20;99.90;;;;;;4996759;28;20058;-75
2021/08/08 05:15:04;;;;;;;11.70;8.00;;;16.30;99.90;;;;;;4996709;28;20046;-77
2021/08/08 05:17:30;;;;;;;14.27;8.55;;;16.40;99.90;;;;;;4998763;28;20053;-76
2021/08/08 05:19:56;;;;;;;9.13;7.40;;;16.60;99.90;;;;;;5008605;28;20057;-76
2021/08/08 05:22:22;;;;;;;11.88;8.00;;;16.60;99.90;;;;;;4998680;28;20061;-75
2021/08/08 05:24:49;;;;;;;11.77;6.97;;;16.70;99.90;;;;;;5016710;28;20045;-76
2021/08/08 05:27:16;;;;;;;13.02;6.68;;;16.70;99.90;;;;;;5016288;28;20045;-75
2021/08/08 05:29:43;;;;;;;10.13;6.07;;;16.60;99.90;;;;;;5016470;28;20053;-76
2021/08/08 05:32:09;;;;;;;7.75;4.53;;;16.70;99.90;;;;;;5016272;28;20525;-75
2021/08/08 05:34:36;;;;;;;8.10;5.30;;;16.70;99.90;;;;;;5015970;28;20049;-75
2021/08/08 05:37:02;;;;;;;8.13;4.57;;;16.70;99.90;;;;;;5015070;28;20057;-75
2021/08/08 05:39:28;;;;;;;11.77;4.65;;;16.70;99.90;;;;;;5016253;28;20459;-75
2021/08/08 05:41:54;;;;;;;5.38;4.10;;;16.70;99.90;;;;;;4998452;28;20360;-75
2021/08/08 05:44:21;;;;;;;7.18;4.40;;;16.70;99.90;;;;;;5015786;28;20057;-76
2021/08/08 05:46:47;;;;;;;6.38;3.85;;;16.80;99.90;;;;;;5016308;28;20042;-76
2021/08/08 05:49:13;;;;;;;7.63;4.22;;;16.80;99.90;;;;;;5015832;28;20053;-75
2021/08/08 05:51:41;;;;;;;5.63;3.17;;;16.90;99.90;;;;;;5015355;28;20049;-76
2021/08/08 05:54:08;;;;;;;6.40;3.38;;;17.00;99.90;;;;;;5015834;28;20056;-76
2021/08/08 05:56:34;;;;;;;7.50;3.45;;;17.00;99.90;;;;;;5015372;28;20061;-76
2021/08/08 05:59:04;;;;;;;5.32;2.50;;;17.00;99.90;;;;;;5015593;28;20060;-75
2021/08/08 06:01:31;;;;;;;5.95;2.60;;;17.10;99.90;;;;;;5026956;28;20037;-76
2021/08/08 06:03:57;;;;;;;5.78;2.42;;;17.10;99.90;;;;;;5035309;28;20037;-76
2021/08/08 06:06:23;;;;;;;6.32;2.58;;;17.30;99.90;;;;;;5033515;28;20052;-76
2021/08/08 06:08:49;;;;;;;5.03;2.67;;;17.60;99.90;;;;;;5034987;28;20045;-76
2021/08/08 06:11:16;;;;;;;4.68;2.00;;;17.70;99.90;;;;;;5035178;28;20049;-77
2021/08/08 06:13:42;;;;;;;4.55;2.40;;;18.00;99.90;;;;;;5034974;28;20052;-76
2021/08/08 06:16:08;;;;;;;5.85;2.25;;;18.00;99.90;;;;;;5035362;28;20335;-76
2021/08/08 06:18:35;;;;;;;6.10;2.00;;;18.20;99.90;;;;;;5035085;28;20049;-76
2021/08/08 06:21:01;;;;;;;8.93;2.45;;;18.10;99.90;;;;;;5035014;28;20075;-76
2021/08/08 06:23:27;;;;;;;5.78;2.58;;;18.00;99.90;;;;;;5034460;28;20338;-76
2021/08/08 06:26:03;;;;;;;5.07;2.50;;;17.80;99.90;;;;;;5153152;27;20610;-75
2021/08/08 06:28:30;;;;;;;5.60;2.47;;;17.50;99.90;;;;;;5132470;28;20436;-75
2021/08/08 06:30:56;;;;;;;4.70;2.30;;;17.50;99.90;;;;;;5132358;28;20043;-75
2021/08/08 06:33:22;;;;;;;5.80;2.83;;;17.50;99.90;;;;;;5133219;27;20042;-75
2021/08/08 06:35:51;;;;;;;6.38;3.30;;;17.40;99.90;;;;;;5141521;27;20054;-75
2021/08/08 06:38:17;;;;;;;6.72;2.67;;;17.20;99.90;;;;;;5142557;27;20058;-76
2021/08/08 06:40:43;;;;;;;8.75;2.97;;;17.20;99.90;;;;;;5142583;27;20043;-75
2021/08/08 06:43:10;;;;;;;6.22;2.58;;;17.30;99.90;;;;;;5136269;27;20050;-75
2021/08/08 06:45:36;;;;;;;6.45;2.17;;;17.30;99.90;;;;;;5132994;28;20048;-76
2021/08/08 06:48:02;;;;;;;4.75;2.58;;;17.60;99.90;;;;;;5135966;28;20063;-76
2021/08/08 06:50:29;;;;;;;6.30;2.70;;;17.60;99.90;;;;;;5135469;28;20054;-76
2021/08/08 06:52:56;;;;;;;7.40;2.47;;;17.70;99.90;;;;;;5117358;28;20417;-77
2021/08/08 06:55:23;;;;;;;5.82;2.58;;;17.80;99.90;;;;;;5135820;28;20051;-76
2021/08/08 06:57:49;;;;;;;6.30;3.00;;;17.80;99.90;;;;;;5135954;28;20043;-77
2021/08/08 07:00:16;;;;;;;8.45;3.10;;;17.70;99.90;;;;;;5117739;28;20035;-77
2021/08/08 07:02:42;;;;;;;7.57;2.92;;;17.60;99.90;;;;;;5118020;28;20065;-77
2021/08/08 07:05:09;;;;;;;9.57;3.40;;;17.60;99.90;;;;;;5136120;28;20043;-77
2021/08/08 07:07:35;;;;;;;6.78;3.00;;;17.70;99.90;;;;;;5134954;28;20058;-78
2021/08/08 07:10:02;;;;;;;5.03;2.72;;;17.60;99.90;;;;;;5135820;28;20047;-78
2021/08/08 07:12:29;;;;;;;7.35;3.00;;;17.60;99.90;;;;;;5135360;28;20051;-78
2021/08/08 07:14:56;;;;;;;6.60;3.40;;;17.50;99.90;;;;;;5135897;28;20051;-77
2021/08/08 07:17:23;;;;;;;11.65;4.35;;;17.60;99.90;;;;;;5135931;28;20043;-78
2021/08/08 07:19:49;;;;;;;6.82;3.22;;;17.70;99.90;;;;;;5135812;28;20047;-78
2021/08/08 07:22:15;;;;;;;8.40;3.08;;;17.60;99.90;;;;;;5135578;28;20063;-77
2021/08/08 07:24:44;;;;;;;10.15;3.85;;;17.60;99.90;;;;;;5135378;28;20055;-75
2021/08/08 07:27:11;;;;;;;14.52;3.65;;;17.70;99.90;;;;;;5135202;28;20058;-74
2021/08/08 07:29:38;;;;;;;8.50;3.45;;;17.70;99.90;;;;;;5135099;28;20055;-76
2021/08/08 07:32:04;;;;;;;9.98;4.30;;;17.60;99.90;;;;;;5135539;28;20059;-76
2021/08/08 07:34:30;;;;;;;11.20;3.60;;;17.60;99.90;;;;;;5136003;28;20310;-76
2021/08/08 07:36:57;;;;;;;11.00;3.90;;;17.50;99.90;;;;;;5123515;28;20051;-74
2021/08/08 07:39:23;;;;;;;12.18;4.70;;;17.50;99.90;;;;;;5122809;28;20039;-73
2021/08/08 07:41:49;;;;;;;10.80;3.42;;;17.50;99.90;;;;;;5121379;28;20459;-74
2021/08/08 07:44:16;;;;;;;10.77;3.22;;;17.50;99.90;;;;;;5121934;28;20046;-74
2021/08/08 07:46:42;;;;;;;12.57;3.60;;;17.30;99.90;;;;;;5121653;28;20051;-74
2021/08/08 07:49:08;;;;;;;10.95;3.45;;;17.40;99.90;;;;;;5102337;28;20047;-74
2021/08/08 07:51:34;;;;;;;12.95;3.78;;;17.40;99.90;;;;;;5101539;28;20043;-75
2021/08/08 07:54:01;;;;;;;9.38;4.18;;;17.50;99.90;;;;;;5101658;28;20039;-74
2021/08/08 07:56:27;;;;;;;8.90;4.00;;;17.80;99.90;;;;;;5121521;28;20043;-74
2021/08/08 07:58:53;;;;;;;14.30;3.85;;;18.10;99.90;;;;;;5120690;28;20039;-75
2021/08/08 08:01:19;;;;;;;10.00;4.60;;;18.20;99.90;;;;;;5120645;28;20039;-75
2021/08/08 08:03:45;;;;;;;12.95;4.07;;;18.40;99.90;;;;;;5120054;28;20421;-75
2021/08/08 08:06:12;;;;;;;13.18;3.83;;;18.40;99.90;;;;;;5119136;28;20051;-75
2021/08/08 08:08:38;;;;;;;14.75;4.40;;;18.50;99.90;;;;;;5118387;28;20067;-75
2021/08/08 08:11:04;;;;;;;13.48;4.47;;;18.40;99.90;;;;;;5117846;28;20059;-75
2021/08/08 08:13:30;;;;;;;10.32;4.15;;;18.40;99.90;;;;;;5116886;28;20317;-75
2021/08/08 08:15:57;;;;;;;13.90;4.13;;;18.30;99.90;;;;;;5116741;28;20043;-75
2021/08/08 08:18:24;;;;;;;14.07;3.97;;;18.50;99.90;;;;;;5116847;28;20047;-73
2021/08/08 08:20:50;;;;;;;10.77;3.90;;;18.70;99.90;;;;;;5116516;28;20417;-74
2021/08/08 08:23:16;;;;;;;12.80;3.75;;;18.70;99.90;;;;;;5115784;28;20051;-74
2021/08/08 08:25:43;;;;;;;16.92;3.42;;;18.60;99.90;;;;;;5115849;28;20344;-74
2021/08/08 08:28:12;;;;;;;16.77;4.55;;;18.60;99.90;;;;;;5116149;28;20443;-74
2021/08/08 08:30:39;;;;;;;15.15;4.47;;;18.30;99.90;;;;;;5115757;28;20059;-75
2021/08/08 08:33:06;;;;;;;15.30;4.50;;;18.20;99.90;;;;;;5115855;28;20054;-76
2021/08/08 08:35:32;;;;;;;15.15;4.65;;;18.10;99.90;;;;;;5116180;28;20047;-75
2021/08/08 08:37:59;;;;;;;18.05;4.15;;;18.10;99.90;;;;;;5098360;28;20035;-74
2021/08/08 08:40:26;;;;;;;15.32;4.88;;;18.00;99.90;;;;;;5115962;28;20059;-74
2021/08/08 08:42:56;;;;;;;12.00;4.07;;;17.90;99.90;;;;;;5115725;28;20051;-73
2021/08/08 08:45:22;;;;;;;13.15;4.00;;;17.90;99.90;;;;;;5116171;28;20039;-74
2021/08/08 08:47:48;;;;;;;15.88;4.85;;;18.40;99.90;;;;;;5114816;28;20056;-73
2021/08/08 08:50:15;;;;;;;11.25;3.97;;;18.50;99.90;;;;;;5115890;28;20075;-74
2021/08/08 08:52:42;;;;;;;12.05;3.70;;;18.90;99.90;;;;;;5116123;28;20050;-74
2021/08/08 08:55:09;;;;;;;12.98;4.72;;;19.10;99.90;;;;;;5115664;28;20048;-74
2021/08/08 08:57:36;;;;;;;9.77;3.38;;;19.30;99.30;;;;;;5116500;28;20058;-75
2021/08/08 09:00:08;;;;;;;12.30;4.40;;;19.60;99.00;;;;;;5115179;28;20337;-74
2021/08/08 09:02:34;;;;;;;11.23;3.72;;;19.60;99.60;;;;;;5095521;28;20052;-75
2021/08/08 09:05:01;;;;;;;14.70;4.03;;;19.90;99.90;;;;;;5095433;28;20059;-75
2021/08/08 09:07:28;;;;;;;11.88;3.65;;;;;;;;;;5095409;28;20429;-74
2021/08/08 09:09:56;;;;;;;15.07;4.32;;;19.50;98.60;;;;;;5094934;28;20368;-74
2021/08/08 09:12:25;;;;;;;15.70;4.45;;;19.50;98.70;;;;;;5095296;28;20047;-74
2021/08/08 09:15:02;;;;;;;22.42;4.65;;;19.50;99.00;;;;;;5094653;28;20055;-74
2021/08/08 09:17:29;;;;;;;12.93;3.33;;;19.30;98.70;;;;;;5095501;28;20314;-74
2021/08/08 09:20:05;;;;;;;9.90;3.17;;;19.50;99.90;;;;;;5077107;28;20444;-75
2021/08/08 09:22:32;;;;;;;11.30;2.95;;;19.40;98.60;;;;;;5095129;28;20098;-75
2021/08/08 09:24:58;;;;;;;9.60;2.65;;;19.30;98.40;;;;;;5094350;28;20048;-74
2021/08/08 09:27:38;;;;;;;12.85;2.95;;;19.20;98.10;;;;;;5094449;28;20055;-73
2021/08/08 09:30:19;;;;;;;12.80;3.22;;;19.50;99.90;;;;;;5094507;28;20055;-74
2021/08/08 09:32:46;;;;;;;12.07;3.30;;;19.10;97.50;;;;;;5094878;28;20056;-75
2021/08/08 09:35:22;;;;;;;15.32;4.78;;;19.10;98.20;;;;;;5094843;28;20044;-74
2021/08/08 09:38:02;;;;;;;12.73;4.47;;;19.00;98.30;;;;;;5094667;28;20032;-74
2021/08/08 09:40:31;;;;;;;9.93;2.92;;;19.10;98.30;;;;;;5094658;28;20066;-74
2021/08/08 09:42:58;;;;;;;7.85;2.67;;;19.40;98.20;;;;;;5094508;28;20051;-75
2021/08/08 09:45:38;;;;;;;13.25;3.50;;;19.40;97.50;;;;;;5094707;28;20043;-74
2021/08/08 09:48:05;;;;;;;14.18;3.10;;;19.30;97.70;;;;;;5094833;28;20047;-74
2021/08/08 09:50:33;;;;;;;11.38;2.80;;;19.10;98.00;;;;;;5093887;28;20054;-74
2021/08/08 09:53:02;;;;;;;10.18;3.08;;;19.10;98.10;;;;;;5093884;28;20051;-74
2021/08/08 09:55:31;;;;;;;12.48;3.40;;;18.90;98.30;;;;;;5094283;28;20106;-74
2021/08/08 09:57:58;;;;;;;8.23;2.92;;;19.30;97.90;;;;;;5094199;28;20048;-74
2021/08/08 10:00:29;;;;;;;12.80;3.60;;;19.40;98.40;;;;;;5096996;28;20055;-74
2021/08/08 10:02:55;;;;;;;16.35;4.45;;;20.00;99.90;;;;;;5114365;28;20055;-74
2021/08/08 10:05:23;;;;;;;11.68;2.97;;;19.70;98.60;;;;;;5113324;28;20055;-75
2021/08/08 10:07:50;;;;;;;16.25;4.15;;;20.30;98.10;;;;;;5113448;28;20059;-74
2021/08/08 10:10:18;;;;;;;18.75;4.85;;;19.40;97.60;;;;;;5114276;28;20455;-73
2021/08/08 10:12:55;;;;;;;18.83;3.85;;;19.40;97.60;;;;;;5113907;28;20062;-74
2021/08/08 10:15:21;;;;;;;18.02;5.35;;;19.60;97.50;;;;;;5114593;28;20043;-74
2021/08/08 10:17:50;;;;;;;18.13;4.57;;;19.70;96.70;;;;;;5095488;28;20047;-73
2021/08/08 10:20:17;;;;;;;17.05;3.88;;;20.40;97.10;;;;;;5114206;28;20063;-74
2021/08/08 10:22:46;;;;;;;19.98;4.65;;;20.40;95.70;;;;;;5114393;28;20047;-74
2021/08/08 10:25:12;;;;;;;16.60;4.40;;;20.80;96.10;;;;;;5113551;28;20055;-74
2021/08/08 10:27:38;;;;;;;17.98;4.45;;;21.00;95.20;;;;;;5113901;28;20321;-74
2021/08/08 10:30:06;;;;;;;20.52;4.40;;;21.20;95.10;;;;;;5114805;28;20055;-74
2021/08/08 10:32:32;;;;;;;22.38;4.82;;;21.40;94.70;;;;;;5114654;28;20050;-75
2021/08/08 10:35:12;;;;;;;19.58;4.32;;;21.10;93.40;;;;;;5114490;28;20455;-74
2021/08/08 10:37:39;;;;;;;15.77;4.32;;;21.60;93.60;;;;;;5113993;28;20425;-74
2021/08/08 10:40:06;;;;;;;18.00;4.88;;;21.70;91.70;;;;;;5113538;28;20333;-74
2021/08/08 10:42:46;;;;;;;17.98;5.15;;;21.50;91.20;;;;;;5114093;28;20680;-74
2021/08/08 10:45:26;;;;;;;16.88;4.50;;;21.50;91.90;;;;;;5113800;28;20441;-74
2021/08/08 10:47:58;;;;;;;16.38;4.00;;;22.00;91.70;;;;;;5114284;28;20444;-75
2021/08/08 10:50:48;;;;;;;18.45;4.10;;;22.20;91.00;;;;;;5113731;28;20421;-75
2021/08/08 10:53:26;;;;;;;16.05;3.50;;;22.40;88.70;;;;;;5113823;28;20456;-76
2021/08/08 10:56:06;;;;;;;16.10;3.47;;;22.90;87.40;;;;;;5113549;28;20040;-74
2021/08/08 10:58:37;;;;;;;16.88;3.88;;;22.80;87.50;;;;;;5113609;28;20044;-75
2021/08/08 11:01:21;;;;;;;15.68;4.65;;;23.20;89.00;;;;;;5113281;28;20322;-76
2021/08/08 11:03:53;;;;;;;16.92;4.50;;;22.60;84.90;;;;;;5113734;28;20333;-76
2021/08/08 11:06:22;;;;;;;15.57;3.90;;;22.80;85.60;;;;;;5114026;28;20035;-75
2021/08/08 11:08:56;;;;;;;14.82;3.28;;;22.60;84.30;;;;;;5113650;28;20431;-74
2021/08/08 11:11:29;;;;;;;20.08;4.60;;;22.60;86.20;;;;;;5115588;28;20423;-76
2021/08/08 11:14:14;;;;;;;18.33;3.33;;;23.00;86.50;;;;;;5117609;28;20047;-75
2021/08/08 11:16:43;;;;;;;11.35;2.83;;;22.80;84.40;;;;;;5117526;28;20051;-75
2021/08/08 11:19:09;;;;;;;14.35;4.10;;;22.30;84.00;;;;;;5117177;28;20052;-75
2021/08/08 11:21:36;;;;;;;13.88;2.90;;;21.70;83.80;;;;;;5117310;28;20051;-73
2021/08/08 11:24:05;;;;;;;15.30;3.97;;;21.30;85.60;;;;;;5116737;28;20429;-76
2021/08/08 11:26:31;;;;;;;16.48;3.38;;;21.20;86.60;;;;;;5117246;28;20044;-75
2021/08/08 11:29:01;;;;;;;15.20;3.88;;;20.90;99.90;;;;;;5116752;28;20048;-74
2021/08/08 11:31:29;;;;;;;20.42;4.10;;;20.90;87.70;;;;;;5125368;27;20057;-74
2021/08/08 11:34:01;;;;;;;12.90;3.17;;;21.00;88.80;;;;;;5120284;27;20039;-75
2021/08/08 11:36:35;;;;;;;18.60;3.95;;;21.30;87.90;;;;;;5117076;28;20424;-75
2021/08/08 11:39:05;;;;;;;16.50;3.55;;;21.50;87.50;;;;;;5116909;28;20048;-76
2021/08/08 11:41:31;;;;;;;14.48;3.85;;;21.10;86.90;;;;;;5117272;28;20436;-75
2021/08/08 11:44:06;;;;;;;15.68;3.70;;;21.20;86.80;;;;;;5116716;28;20349;-75
2021/08/08 11:46:33;;;;;;;15.55;3.33;;;21.40;86.20;;;;;;5117196;28;20051;-74
2021/08/08 11:48:59;;;;;;;19.45;4.13;;;21.30;83.70;;;;;;5116302;28;20392;-75
2021/08/08 11:51:26;;;;;;;16.55;4.90;;;21.40;84.60;;;;;;5118643;27;20051;-74
2021/08/08 11:53:54;;;;;;;12.15;3.38;;;22.00;84.40;;;;;;5096136;28;20048;-76
2021/08/08 11:56:24;;;;;;;13.88;3.38;;;22.50;83.00;;;;;;5096512;28;20040;-75
2021/08/08 11:58:53;;;;;;;16.48;3.05;;;23.10;82.10;;;;;;5096210;28;20048;-75
2021/08/08 12:01:20;;;;;;;13.82;3.35;;;23.30;80.80;;;;;;5107007;28;20051;-75
2021/08/08 12:03:47;;;;;;;11.60;3.35;;;22.80;79.10;;;;;;5116895;28;20451;-75
2021/08/08 12:06:13;;;;;;;10.75;3.13;;;23.10;80.40;;;;;;5116999;28;20040;-75
2021/08/08 12:08:40;;;;;;;10.38;3.25;;;22.90;79.50;;;;;;5116910;28;20048;-75
2021/08/08 12:11:07;;;;;;;15.23;3.67;;;23.20;80.00;;;;;;5116105;28;20050;-75
2021/08/08 12:13:33;;;;;;;12.27;3.45;;;22.70;79.20;;;;;;5115742;28;20170;-75
2021/08/08 12:16:10;;;;;;;11.48;3.20;;;22.50;81.20;;;;;;5116048;28;20058;-76
2021/08/08 12:18:37;;;;;;;10.82;3.55;;;21.80;79.60;;;;;;5117058;28;20044;-75
2021/08/08 12:21:14;;;;;;;12.65;2.80;;;21.80;83.60;;;;;;5116274;28;20048;-76
2021/08/08 12:23:40;;;;;;;12.35;2.83;;;22.10;82.40;;;;;;5116106;28;20051;-77
2021/08/08 12:26:07;;;;;;;18.52;3.67;;;22.40;82.30;;;;;;5120779;27;20058;-74
2021/08/08 12:28:33;;;;;;;15.65;3.47;;;23.30;82.20;;;;;;5125404;27;20043;-73
2021/08/08 12:31:10;;;;;;;18.38;3.33;;;22.90;77.60;;;;;;5117690;27;20056;-74
2021/08/08 12:33:38;;;;;;;13.88;3.38;;;23.10;77.30;;;;;;5115845;28;20055;-75
2021/08/08 12:36:12;;;;;;;17.45;4.50;;;23.70;75.80;;;;;;5116605;28;20047;-75
2021/08/08 12:38:52;;;;;;;16.98;4.32;;;23.70;72.20;;;;;;5116429;28;20051;-75
2021/08/08 12:41:29;;;;;;;18.95;4.30;;;23.70;74.20;;;;;;5097776;28;20052;-75
2021/08/08 12:44:00;;;;;;;13.52;3.65;;;23.40;73.10;;;;;;5116491;28;20047;-76
2021/08/08 12:46:44;;;;;;;18.88;4.38;;;23.70;73.60;;;;;;5115908;28;20365;-75